Time;durP1;ratioP1;P1;durP2;ratioP2;P2;SDS_P1;SDS_P2;PMS_P1;PMS_P2;Temp;Humidity;BMP_temperature;BMP_pressure;BME280_temperature;BME280_humidity;BME280_pressure;Samples;Min_cycle;Max_cycle;Signal;HPM_P1;HPM_P2
2023/08/09 00:02:07;;;;;;;1.80;0.70;;;24.40;77.10;;;;;;4955698;28;20034;-83
2023/08/09 00:04:33;;;;;;;2.17;0.90;;;24.30;77.20;;;;;;4977446;28;20042;-84
2023/08/09 00:06:59;;;;;;;1.30;0.70;;;24.30;77.30;;;;;;4975429;28;20073;-84
2023/08/09 00:09:24;;;;;;;0.90;0.60;;;24.30;77.30;;;;;;4976142;28;20031;-83
2023/08/09 00:11:50;;;;;;;1.27;0.70;;;24.30;77.40;;;;;;4977856;28;20050;-84
2023/08/09 00:14:16;;;;;;;1.83;0.70;;;24.30;77.70;;;;;;4976604;28;20433;-84
2023/08/09 00:16:41;;;;;;;1.88;0.70;;;24.30;77.90;;;;;;4980455;28;20034;-82
2023/08/09 00:19:09;;;;;;;0.73;0.60;;;24.20;77.90;;;;;;4979102;28;20358;-83
2023/08/09 00:21:36;;;;;;;1.42;0.68;;;24.20;78.00;;;;;;4974738;28;20469;-83
2023/08/09 00:24:03;;;;;;;2.38;1.10;;;24.20;78.00;;;;;;4976960;28;20023;-83
2023/08/09 00:26:29;;;;;;;1.98;0.82;;;24.20;78.10;;;;;;4980519;28;20026;-83
2023/08/09 00:28:55;;;;;;;1.70;0.93;;;24.20;78.30;;;;;;4979144;28;20421;-83
2023/08/09 00:31:21;;;;;;;2.08;1.08;;;24.20;78.30;;;;;;4975782;28;20477;-84
2023/08/09 00:33:46;;;;;;;3.53;1.05;;;24.10;78.40;;;;;;4975238;28;20481;-84
2023/08/09 00:36:12;;;;;;;2.67;0.80;;;24.10;78.50;;;;;;4976360;28;20031;-85
2023/08/09 00:38:38;;;;;;;1.48;0.73;;;24.10;78.60;;;;;;4979071;28;20043;-83
2023/08/09 00:41:04;;;;;;;1.23;0.70;;;24.10;78.60;;;;;;4973607;28;20047;-83
2023/08/09 00:43:30;;;;;;;1.23;0.60;;;24.10;78.90;;;;;;4974519;28;20026;-83
2023/08/09 00:45:56;;;;;;;0.82;0.70;;;24.00;79.20;;;;;;4975740;28;20111;-82
2023/08/09 00:48:22;;;;;;;1.85;0.70;;;23.90;79.00;;;;;;4980305;28;20027;-83
2023/08/09 00:50:47;;;;;;;1.70;0.77;;;23.90;78.90;;;;;;4977462;28;20118;-82
2023/08/09 00:53:13;;;;;;;0.85;0.50;;;23.90;79.10;;;;;;4977611;28;20480;-82
2023/08/09 00:55:39;;;;;;;1.38;0.60;;;23.90;79.10;;;;;;4974717;28;20019;-82
2023/08/09 00:58:05;;;;;;;1.40;0.93;;;24.00;79.20;;;;;;4974674;28;20030;-82
2023/08/09 01:00:31;;;;;;;1.90;0.80;;;24.00;79.20;;;;;;4974829;28;20050;-84
2023/08/09 01:02:58;;;;;;;2.65;0.70;;;23.90;79.20;;;;;;4975917;28;20026;-84
2023/08/09 01:05:32;;;;;;;1.48;0.60;;;23.90;79.10;;;;;;4978510;28;20049;-83
2023/08/09 01:08:16;;;;;;;1.60;0.52;;;23.90;79.10;;;;;;4961168;28;20097;-83
2023/08/09 01:10:50;;;;;;;1.75;0.82;;;23.80;79.20;;;;;;4982030;28;20023;-83
2023/08/09 01:13:19;;;;;;;1.52;0.50;;;23.80;79.30;;;;;;4972425;28;20098;-83
2023/08/09 01:15:47;;;;;;;1.25;0.65;;;23.80;79.30;;;;;;4971724;28;20451;-77
2023/08/09 01:18:14;;;;;;;1.00;0.43;;;23.80;79.50;;;;;;4971970;28;20031;-77
2023/08/09 01:20:40;;;;;;;1.65;0.50;;;23.80;79.60;;;;;;4974816;28;20054;-77
2023/08/09 01:23:13;;;;;;;1.60;0.47;;;23.70;79.80;;;;;;4973901;28;20097;-77
2023/08/09 01:25:39;;;;;;;1.30;0.50;;;23.70;79.90;;;;;;4978495;28;20779;-83
2023/08/09 01:28:05;;;;;;;2.38;0.68;;;23.60;79.90;;;;;;4955394;28;20027;-84
2023/08/09 01:30:31;;;;;;;0.80;0.55;;;23.60;79.80;;;;;;4981188;28;20042;-76
2023/08/09 01:32:57;;;;;;;1.00;0.70;;;23.60;79.80;;;;;;4976515;28;20034;-77
2023/08/09 01:35:25;;;;;;;1.42;0.43;;;23.60;79.80;;;;;;4975050;28;20373;-77
2023/08/09 01:38:10;;;;;;;1.38;0.50;;;23.60;80.10;;;;;;4964947;28;20031;-78
2023/08/09 01:40:37;;;;;;;3.03;0.70;;;23.60;80.10;;;;;;4973863;28;20713;-78
2023/08/09 01:43:04;;;;;;;0.68;0.60;;;23.60;80.50;;;;;;4974220;28;20039;-75
2023/08/09 01:45:31;;;;;;;2.75;0.60;;;23.50;80.40;;;;;;4974507;28;20034;-76
2023/08/09 01:47:56;;;;;;;1.73;0.60;;;23.50;80.60;;;;;;4974344;28;20522;-77
2023/08/09 01:50:25;;;;;;;2.20;0.77;;;23.50;80.60;;;;;;4973705;28;20101;-76
2023/08/09 01:52:55;;;;;;;2.05;0.60;;;23.50;80.60;;;;;;4977962;28;20088;-76
2023/08/09 01:55:22;;;;;;;0.98;0.50;;;23.50;80.90;;;;;;4962240;28;20053;-77
2023/08/09 01:57:48;;;;;;;0.73;0.50;;;23.50;80.90;;;;;;4955803;28;20042;-76
2023/08/09 02:00:17;;;;;;;0.65;0.60;;;23.50;81.00;;;;;;4972254;28;20031;-76
2023/08/09 02:02:43;;;;;;;1.10;0.50;;;23.40;81.00;;;;;;4971450;28;20480;-77
2023/08/09 02:05:10;;;;;;;0.90;0.45;;;23.50;81.10;;;;;;4981509;28;20060;-77
2023/08/09 02:07:36;;;;;;;1.75;0.55;;;23.40;81.00;;;;;;4961325;28;20118;-76
2023/08/09 02:10:03;;;;;;;2.70;0.60;;;23.40;81.00;;;;;;4974257;28;20158;-76
2023/08/09 02:12:28;;;;;;;2.58;0.68;;;23.40;81.00;;;;;;4980678;28;20516;-76
2023/08/09 02:14:55;;;;;;;1.42;0.50;;;23.40;81.00;;;;;;4978849;28;20110;-77
2023/08/09 02:17:21;;;;;;;0.93;0.50;;;23.40;81.00;;;;;;4973513;28;20401;-76
2023/08/09 02:19:47;;;;;;;2.03;0.68;;;23.40;81.10;;;;;;4967625;28;20612;-77
2023/08/09 02:22:15;;;;;;;0.73;0.50;;;23.40;81.00;;;;;;4954560;28;20137;-77
2023/08/09 02:24:41;;;;;;;3.50;0.77;;;23.40;81.10;;;;;;4968111;28;20041;-77
2023/08/09 02:27:06;;;;;;;1.67;0.60;;;23.30;81.10;;;;;;4973688;28;20019;-76
2023/08/09 02:29:32;;;;;;;1.50;0.80;;;23.40;81.20;;;;;;4971380;28;20030;-78
2023/08/09 02:31:58;;;;;;;2.42;1.23;;;23.30;81.00;;;;;;4980226;28;20563;-77
2023/08/09 02:34:24;;;;;;;2.10;0.90;;;23.40;81.00;;;;;;4974232;28;20060;-78
2023/08/09 02:36:49;;;;;;;2.75;1.00;;;23.40;81.10;;;;;;4961403;28;20043;-78
2023/08/09 02:39:15;;;;;;;1.85;1.10;;;23.30;81.00;;;;;;4979606;28;20390;-78
2023/08/09 02:41:42;;;;;;;2.45;1.00;;;23.30;81.20;;;;;;4977537;28;20034;-79
2023/08/09 02:44:08;;;;;;;1.65;1.00;;;23.30;81.30;;;;;;4973539;28;20122;-80
2023/08/09 02:46:34;;;;;;;2.08;0.85;;;23.30;81.40;;;;;;4957421;28;20106;-80
2023/08/09 02:48:59;;;;;;;1.52;0.88;;;23.30;81.50;;;;;;4978702;28;20032;-80
2023/08/09 02:51:25;;;;;;;2.35;1.20;;;23.30;81.60;;;;;;4979819;28;20078;-80
2023/08/09 02:54:02;;;;;;;3.03;1.00;;;23.20;81.50;;;;;;4979459;28;20035;-80
2023/08/09 02:56:29;;;;;;;2.53;0.73;;;23.20;81.80;;;;;;4980632;28;20033;-80
2023/08/09 02:58:56;;;;;;;3.30;1.17;;;23.20;81.60;;;;;;4969530;28;21049;-80
2023/08/09 03:01:22;;;;;;;1.65;0.77;;;23.20;81.80;;;;;;4973245;28;20645;-80
2023/08/09 03:06:29;;;;;;;1.38;0.65;;;23.20;82.00;;;;;;4951866;29;20051;-81
2023/08/09 03:08:55;;;;;;;1.80;0.70;;;23.20;82.00;;;;;;4953491;29;20369;-81
2023/08/09 03:11:23;;;;;;;1.42;0.57;;;23.20;82.10;;;;;;4954200;29;20031;-80
2023/08/09 03:13:49;;;;;;;1.15;0.65;;;23.20;82.00;;;;;;4951914;29;20049;-82
2023/08/09 03:16:15;;;;;;;1.40;0.70;;;23.20;82.20;;;;;;4953816;29;20028;-80
2023/08/09 03:18:41;;;;;;;2.10;0.80;;;23.20;82.20;;;;;;4952139;29;20437;-79
2023/08/09 03:21:07;;;;;;;2.25;0.70;;;23.20;82.20;;;;;;4954322;29;20417;-84
2023/08/09 03:23:33;;;;;;;1.48;0.80;;;23.20;82.20;;;;;;4952944;28;20034;-78
2023/08/09 03:25:59;;;;;;;1.70;0.90;;;23.20;82.20;;;;;;4940162;29;20489;-78
2023/08/09 03:28:25;;;;;;;2.25;0.60;;;23.20;82.20;;;;;;4942265;29;20031;-76
2023/08/09 03:30:50;;;;;;;2.92;1.20;;;23.20;82.30;;;;;;4952783;28;20058;-78
2023/08/09 03:33:17;;;;;;;0.70;0.70;;;23.20;82.20;;;;;;4953063;29;20035;-78
2023/08/09 03:35:43;;;;;;;1.50;0.93;;;23.20;82.20;;;;;;4946624;29;20034;-77
2023/08/09 03:38:10;;;;;;;2.38;0.80;;;23.10;82.40;;;;;;4953789;28;20047;-77
2023/08/09 03:40:36;;;;;;;2.75;0.70;;;23.10;82.50;;;;;;4953263;29;20469;-77
2023/08/09 03:43:01;;;;;;;1.58;0.65;;;23.00;83.10;;;;;;4948887;29;20074;-76
2023/08/09 03:45:27;;;;;;;0.60;0.50;;;23.00;83.00;;;;;;4956072;29;20034;-76
2023/08/09 03:47:54;;;;;;;2.28;0.70;;;23.00;83.10;;;;;;4948348;29;20030;-76
2023/08/09 03:50:20;;;;;;;2.03;0.80;;;23.00;83.20;;;;;;4949412;29;20174;-76
2023/08/09 03:52:46;;;;;;;1.35;0.60;;;23.00;83.50;;;;;;4929605;29;20077;-76
2023/08/09 03:55:12;;;;;;;1.27;0.90;;;22.90;83.50;;;;;;4947961;29;20031;-78
2023/08/09 03:57:37;;;;;;;2.70;0.80;;;22.90;83.50;;;;;;4948286;29;20151;-78
2023/08/09 04:00:04;;;;;;;2.88;0.93;;;22.90;83.60;;;;;;4950156;29;20054;-78
2023/08/09 04:02:30;;;;;;;2.20;0.75;;;22.90;83.60;;;;;;4942609;29;20032;-78
2023/08/09 04:04:55;;;;;;;1.02;0.70;;;22.90;83.60;;;;;;4952898;29;20054;-78
2023/08/09 04:07:21;;;;;;;1.02;0.57;;;22.90;83.70;;;;;;4953917;29;20359;-78
2023/08/09 04:09:47;;;;;;;3.47;0.85;;;22.90;83.80;;;;;;4948072;28;20154;-76
2023/08/09 04:12:12;;;;;;;1.42;0.98;;;22.90;83.70;;;;;;4955184;29;20023;-77
2023/08/09 04:14:38;;;;;;;1.13;0.60;;;22.90;83.80;;;;;;4946790;28;20035;-77
2023/08/09 04:17:06;;;;;;;1.42;0.82;;;22.90;84.10;;;;;;4948515;29;20111;-77
2023/08/09 04:19:32;;;;;;;1.08;0.57;;;22.90;84.20;;;;;;4950240;29;20027;-77
2023/08/09 04:21:58;;;;;;;1.90;0.90;;;22.90;84.50;;;;;;4955337;29;20496;-77
2023/08/09 04:24:23;;;;;;;3.42;0.95;;;22.90;84.60;;;;;;4953438;29;20051;-77
2023/08/09 04:26:50;;;;;;;0.98;0.88;;;22.90;84.70;;;;;;4951836;29;20062;-77
2023/08/09 04:29:17;;;;;;;0.98;0.60;;;22.90;84.80;;;;;;4946384;29;20027;-77
2023/08/09 04:31:44;;;;;;;1.52;0.75;;;22.90;84.80;;;;;;4945449;29;20034;-77
2023/08/09 04:34:10;;;;;;;1.38;1.17;;;22.90;85.00;;;;;;4953576;28;20090;-78
2023/08/09 04:36:36;;;;;;;2.08;0.85;;;22.90;85.00;;;;;;4944646;29;20027;-77
2023/08/09 04:39:09;;;;;;;2.13;0.75;;;22.90;85.30;;;;;;4949603;29;20031;-78
2023/08/09 04:41:36;;;;;;;1.73;0.60;;;22.90;85.60;;;;;;4945994;29;20039;-78
2023/08/09 04:44:02;;;;;;;2.80;1.00;;;22.90;85.60;;;;;;4953477;29;20042;-79
2023/08/09 04:46:28;;;;;;;1.98;0.60;;;22.80;85.70;;;;;;4955089;29;20026;-79
2023/08/09 04:48:54;;;;;;;1.10;0.70;;;22.90;85.70;;;;;;4951267;28;20028;-79
2023/08/09 04:51:19;;;;;;;0.55;0.50;;;22.90;85.70;;;;;;4950733;28;20050;-76
2023/08/09 04:53:45;;;;;;;0.85;0.50;;;22.90;85.70;;;;;;4949372;29;20050;-78
2023/08/09 04:56:11;;;;;;;1.33;1.00;;;23.00;85.90;;;;;;4952263;29;20126;-77
2023/08/09 04:58:38;;;;;;;1.75;0.90;;;23.00;86.10;;;;;;4952188;29;20488;-77
2023/08/09 05:01:03;;;;;;;1.83;0.90;;;23.00;86.10;;;;;;4953577;29;20034;-77
2023/08/09 05:03:29;;;;;;;0.88;0.68;;;23.00;86.20;;;;;;4952828;29;20028;-77
2023/08/09 05:05:55;;;;;;;3.53;0.90;;;23.00;86.20;;;;;;4952579;28;20493;-77
2023/08/09 05:08:21;;;;;;;1.25;0.60;;;23.00;86.30;;;;;;4932265;29;20031;-77
2023/08/09 05:10:47;;;;;;;2.50;0.80;;;23.00;86.40;;;;;;4953113;29;20189;-77
2023/08/09 05:13:12;;;;;;;2.45;0.68;;;23.00;86.60;;;;;;4948458;29;20031;-77
2023/08/09 05:15:38;;;;;;;1.55;0.73;;;22.90;86.70;;;;;;4954043;29;20035;-77
2023/08/09 05:18:04;;;;;;;1.60;0.80;;;22.90;86.70;;;;;;4954579;29;20031;-77
2023/08/09 05:20:30;;;;;;;1.25;0.60;;;22.90;87.10;;;;;;4948597;29;20556;-77
2023/08/09 05:22:56;;;;;;;1.58;0.70;;;22.90;87.00;;;;;;4946963;29;20461;-78
2023/08/09 05:25:21;;;;;;;1.73;0.65;;;22.90;86.90;;;;;;4954520;29;20038;-79
2023/08/09 05:27:48;;;;;;;1.88;0.65;;;23.00;87.00;;;;;;4946075;29;20485;-76
2023/08/09 05:30:20;;;;;;;1.10;0.60;;;23.00;87.00;;;;;;4944013;29;20081;-76
2023/08/09 05:32:47;;;;;;;10.45;0.98;;;23.00;86.90;;;;;;4946292;29;20079;-76
2023/08/09 05:35:13;;;;;;;1.42;0.50;;;23.10;87.00;;;;;;4933398;29;20414;-76
2023/08/09 05:37:39;;;;;;;0.63;0.60;;;23.20;86.70;;;;;;4951814;29;20027;-76
2023/08/09 05:40:09;;;;;;;1.25;0.73;;;23.20;86.70;;;;;;4929849;29;20478;-77
2023/08/09 05:42:35;;;;;;;2.78;0.60;;;23.20;86.80;;;;;;4944357;29;20028;-77
2023/08/09 05:45:01;;;;;;;1.50;0.60;;;23.20;86.70;;;;;;4940909;29;20037;-76
2023/08/09 05:47:26;;;;;;;1.52;0.68;;;23.30;86.70;;;;;;4943178;29;20040;-75
2023/08/09 05:49:54;;;;;;;1.98;0.50;;;23.40;86.60;;;;;;4951829;29;20097;-75
2023/08/09 05:52:20;;;;;;;1.00;0.52;;;23.40;86.50;;;;;;4951813;29;20031;-75
2023/08/09 05:54:46;;;;;;;1.08;0.57;;;23.50;86.30;;;;;;4950495;29;20035;-75
2023/08/09 05:57:12;;;;;;;2.72;0.60;;;23.50;86.10;;;;;;4951876;29;20085;-75
2023/08/09 05:59:39;;;;;;;1.85;0.50;;;23.60;86.10;;;;;;4951303;29;20412;-75
2023/08/09 06:02:06;;;;;;;3.20;0.63;;;23.60;85.90;;;;;;4953584;28;20063;-77
2023/08/09 06:04:32;;;;;;;0.93;0.70;;;23.60;85.60;;;;;;4947062;29;20046;-77
2023/08/09 06:06:58;;;;;;;2.33;0.70;;;23.60;86.10;;;;;;4950429;29;20023;-77
2023/08/09 06:09:24;;;;;;;1.10;0.60;;;23.70;85.40;;;;;;4950654;29;20031;-77
2023/08/09 06:11:50;;;;;;;1.33;0.68;;;23.70;85.20;;;;;;4926085;29;20496;-77
2023/08/09 06:14:15;;;;;;;1.10;0.63;;;23.70;85.20;;;;;;4949768;29;20114;-78
2023/08/09 06:16:45;;;;;;;3.28;0.70;;;23.70;85.30;;;;;;4952451;29;20043;-77
2023/08/09 06:19:11;;;;;;;1.40;0.80;;;23.70;85.40;;;;;;4951802;28;20090;-79
2023/08/09 06:21:38;;;;;;;0.80;0.57;;;23.70;85.40;;;;;;4945925;29;20031;-78
2023/08/09 06:24:05;;;;;;;0.80;0.40;;;23.70;85.10;;;;;;4954192;29;20027;-78
2023/08/09 06:26:34;;;;;;;2.08;0.50;;;23.80;85.10;;;;;;4947474;28;20030;-79
2023/08/09 06:29:01;;;;;;;0.40;0.40;;;23.80;85.00;;;;;;4929979;29;20031;-79
2023/08/09 06:31:27;;;;;;;10.40;0.82;;;23.80;84.70;;;;;;4947387;28;20086;-78
2023/08/09 06:33:54;;;;;;;0.95;0.50;;;23.90;84.90;;;;;;4939079;29;20022;-79
2023/08/09 06:36:19;;;;;;;1.08;0.57;;;24.00;84.60;;;;;;4949189;29;20430;-79
2023/08/09 06:38:45;;;;;;;1.35;0.90;;;24.00;84.50;;;;;;4951688;29;20063;-77
2023/08/09 06:41:11;;;;;;;2.05;0.50;;;24.00;84.50;;;;;;4944974;29;20103;-77
2023/08/09 06:43:37;;;;;;;1.27;0.50;;;24.00;84.50;;;;;;4942371;29;20032;-77
2023/08/09 06:46:03;;;;;;;4.15;0.70;;;24.00;84.50;;;;;;4945223;29;20477;-77
2023/08/09 06:48:33;;;;;;;1.48;0.50;;;24.10;84.50;;;;;;4944357;29;20027;-78
2023/08/09 06:51:00;;;;;;;1.77;0.57;;;24.10;84.40;;;;;;4941334;29;20035;-78
2023/08/09 06:53:49;;;;;;;3.65;0.73;;;24.10;84.30;;;;;;4948813;29;20078;-78
2023/08/09 06:56:15;;;;;;;3.70;0.82;;;24.20;84.10;;;;;;4945066;29;20032;-78
2023/08/09 06:58:41;;;;;;;1.38;0.60;;;24.30;84.10;;;;;;4948262;29;20046;-78
2023/08/09 07:01:09;;;;;;;2.67;0.68;;;24.30;84.20;;;;;;4951621;28;20106;-79
2023/08/09 07:03:35;;;;;;;1.35;0.60;;;24.40;84.20;;;;;;4927487;29;20118;-78
2023/08/09 07:06:02;;;;;;;3.80;0.55;;;24.40;83.90;;;;;;4916631;29;20051;-77
2023/08/09 07:08:28;;;;;;;2.67;0.75;;;24.50;84.10;;;;;;4933787;29;20043;-79
2023/08/09 07:10:55;;;;;;;0.88;0.73;;;24.50;84.00;;;;;;4933601;29;20036;-87
2023/08/09 07:13:21;;;;;;;1.30;0.40;;;24.50;83.80;;;;;;4917288;29;20035;-86
2023/08/09 07:15:47;;;;;;;2.95;1.02;;;24.60;83.70;;;;;;4935412;29;20174;-87
2023/08/09 07:18:13;;;;;;;2.35;0.60;;;24.60;83.80;;;;;;4929465;29;20398;-86
2023/08/09 07:20:38;;;;;;;2.67;0.80;;;24.60;83.50;;;;;;4936911;29;20044;-86
2023/08/09 07:23:04;;;;;;;2.05;0.73;;;24.60;83.30;;;;;;4937399;29;20034;-85
2023/08/09 07:25:31;;;;;;;1.27;0.50;;;24.60;83.40;;;;;;4934820;29;20023;-76
2023/08/09 07:27:56;;;;;;;3.05;0.80;;;24.70;83.40;;;;;;4919413;29;20028;-77
2023/08/09 07:30:22;;;;;;;1.63;0.60;;;24.70;83.40;;;;;;4936367;29;20103;-77
2023/08/09 07:32:48;;;;;;;0.50;0.40;;;24.80;83.20;;;;;;4936901;29;20031;-79
2023/08/09 07:35:15;;;;;;;2.63;0.75;;;24.80;83.20;;;;;;4935164;29;20061;-83
2023/08/09 07:37:42;;;;;;;1.42;0.93;;;24.80;83.20;;;;;;4952001;29;20042;-79
2023/08/09 07:40:09;;;;;;;2.72;0.70;;;25.00;83.10;;;;;;4942961;29;20031;-89
2023/08/09 07:42:35;;;;;;;3.17;0.75;;;25.00;82.60;;;;;;4922265;29;20032;-89
2023/08/09 07:45:01;;;;;;;2.65;0.88;;;25.10;82.60;;;;;;4942035;29;20552;-85
2023/08/09 07:47:27;;;;;;;2.10;0.77;;;25.10;82.60;;;;;;4938571;29;20517;-84
2023/08/09 07:49:53;;;;;;;2.53;0.60;;;25.10;82.40;;;;;;4940923;29;20031;-92
2023/08/09 07:52:18;;;;;;;0.95;0.40;;;25.20;82.40;;;;;;4940031;29;20059;-93
2023/08/09 07:54:44;;;;;;;3.08;0.70;;;25.20;82.20;;;;;;4939152;29;20490;-93
2023/08/09 07:57:10;;;;;;;1.35;0.70;;;25.20;82.00;;;;;;4922557;29;20034;-92
2023/08/09 07:59:35;;;;;;;2.45;0.55;;;25.10;82.00;;;;;;4939192;29;20066;-93
2023/08/09 08:02:01;;;;;;;2.03;0.70;;;25.10;82.10;;;;;;4921827;29;20031;-85
2023/08/09 08:04:27;;;;;;;2.55;0.63;;;25.20;82.30;;;;;;4933589;29;20039;-85
2023/08/09 08:06:52;;;;;;;2.28;0.70;;;25.20;82.20;;;;;;4945807;29;20486;-85
2023/08/09 08:09:18;;;;;;;1.63;0.55;;;25.20;82.10;;;;;;4955927;29;20070;-85
2023/08/09 08:11:45;;;;;;;4.90;0.50;;;25.10;82.50;;;;;;4940324;29;20043;-84
2023/08/09 08:14:11;;;;;;;2.63;0.77;;;25.20;82.80;;;;;;4938396;29;20031;-84
2023/08/09 08:16:37;;;;;;;1.73;0.50;;;25.30;82.80;;;;;;4931914;29;20086;-84
2023/08/09 08:19:03;;;;;;;4.13;0.95;;;25.40;82.80;;;;;;4943180;29;20117;-85
2023/08/09 08:21:30;;;;;;;6.38;0.50;;;25.50;82.10;;;;;;4933190;29;20098;-85
2023/08/09 08:24:00;;;;;;;2.38;0.70;;;25.50;81.90;;;;;;4923125;29;20031;-92
2023/08/09 08:26:26;;;;;;;2.13;0.60;;;25.60;82.30;;;;;;4928681;29;20024;-83
2023/08/09 08:28:52;;;;;;;0.70;0.40;;;25.70;82.30;;;;;;4929203;29;20389;-85
2023/08/09 08:31:20;;;;;;;1.65;0.65;;;25.70;81.20;;;;;;4940824;29;20042;-84
2023/08/09 08:33:49;;;;;;;1.40;0.70;;;25.70;81.30;;;;;;4930182;29;20023;-84
2023/08/09 08:36:16;;;;;;;2.58;0.60;;;25.70;81.10;;;;;;4930137;29;20083;-85
2023/08/09 08:38:42;;;;;;;1.55;0.73;;;25.70;81.30;;;;;;4927837;29;20034;-85
2023/08/09 08:41:10;;;;;;;2.42;0.63;;;25.70;82.10;;;;;;4943584;28;20093;-84
2023/08/09 08:43:37;;;;;;;1.52;0.60;;;25.70;81.60;;;;;;4935399;29;20456;-92
2023/08/09 08:46:06;;;;;;;1.10;0.60;;;25.80;81.10;;;;;;4922666;29;20023;-91
2023/08/09 08:48:33;;;;;;;3.47;0.77;;;25.90;81.30;;;;;;4922191;29;20020;-92
2023/08/09 08:51:02;;;;;;;0.80;0.57;;;26.00;80.60;;;;;;4939925;29;20381;-92
2023/08/09 08:53:28;;;;;;;1.27;0.57;;;26.00;80.20;;;;;;4958136;28;20027;-92
2023/08/09 08:55:55;;;;;;;2.80;0.60;;;26.00;80.20;;;;;;4924430;29;20028;-92
2023/08/09 08:58:22;;;;;;;1.70;0.63;;;26.00;80.40;;;;;;4933643;28;20445;-90
2023/08/09 09:00:48;;;;;;;0.70;0.30;;;26.00;80.30;;;;;;4935721;29;20176;-92
2023/08/09 09:03:15;;;;;;;1.02;0.50;;;26.10;80.20;;;;;;4942513;28;20117;-91
2023/08/09 09:05:41;;;;;;;0.60;0.47;;;26.20;80.20;;;;;;4936561;29;20179;-84
2023/08/09 09:08:08;;;;;;;2.17;0.70;;;26.20;79.70;;;;;;4937697;29;20118;-85
2023/08/09 09:10:34;;;;;;;1.42;0.60;;;26.30;79.70;;;;;;4933656;29;20023;-86
2023/08/09 09:13:00;;;;;;;1.42;0.40;;;26.40;79.80;;;;;;4935016;29;20028;-84
2023/08/09 09:15:27;;;;;;;2.58;0.50;;;26.50;79.60;;;;;;4931197;29;20406;-84
2023/08/09 09:17:53;;;;;;;0.80;0.47;;;26.50;79.40;;;;;;4938657;29;20045;-84
2023/08/09 09:20:27;;;;;;;1.90;0.70;;;26.60;79.60;;;;;;4920560;29;20505;-83
2023/08/09 09:22:54;;;;;;;1.00;0.40;;;26.60;78.80;;;;;;4927804;29;20062;-84
2023/08/09 09:25:22;;;;;;;1.88;0.35;;;26.60;78.50;;;;;;4936729;29;20054;-85
2023/08/09 09:27:52;;;;;;;1.17;0.35;;;26.60;78.80;;;;;;4941107;28;20038;-84
2023/08/09 09:30:21;;;;;;;1.20;0.40;;;26.70;78.70;;;;;;4939152;29;20031;-84
2023/08/09 09:32:56;;;;;;;1.50;0.63;;;26.70;78.50;;;;;;4936817;29;20035;-84
2023/08/09 09:35:25;;;;;;;1.85;0.50;;;26.80;78.30;;;;;;4926576;29;20058;-84
2023/08/09 09:37:53;;;;;;;0.60;0.30;;;26.90;77.90;;;;;;4928544;29;20034;-83
2023/08/09 09:40:27;;;;;;;4.55;0.60;;;26.90;77.80;;;;;;4935033;29;20046;-86
2023/08/09 09:42:55;;;;;;;1.92;0.50;;;27.00;77.80;;;;;;4952208;28;20117;-82
2023/08/09 09:45:24;;;;;;;0.80;0.50;;;27.10;77.40;;;;;;4932493;29;20032;-92
2023/08/09 09:47:52;;;;;;;1.23;0.50;;;27.20;77.40;;;;;;4921053;29;20443;-92
2023/08/09 09:50:22;;;;;;;4.72;0.43;;;27.30;76.00;;;;;;4922313;29;20122;-94
2023/08/09 09:52:49;;;;;;;1.90;0.60;;;27.30;76.30;;;;;;4948416;28;20065;-94
2023/08/09 09:55:26;;;;;;;1.00;0.90;;;27.30;75.30;;;;;;4944325;29;20039;-93
2023/08/09 09:57:56;;;;;;;1.60;0.50;;;27.30;76.50;;;;;;4950617;28;20042;-92
2023/08/09 10:00:22;;;;;;;0.28;0.28;;;27.40;76.20;;;;;;4942835;28;20034;-92
2023/08/09 10:02:51;;;;;;;0.77;0.43;;;27.50;76.10;;;;;;4939665;29;20122;-93
2023/08/09 10:05:39;;;;;;;0.50;0.22;;;27.50;76.00;;;;;;4939712;29;20130;-92
2023/08/09 10:08:09;;;;;;;0.60;0.50;;;27.60;75.40;;;;;;4958513;28;20026;-92
2023/08/09 10:10:37;;;;;;;2.80;0.40;;;27.70;75.20;;;;;;4948809;28;20027;-91
2023/08/09 10:13:05;;;;;;;0.43;0.30;;;27.70;74.20;;;;;;4931826;29;20479;-91
2023/08/09 10:15:40;;;;;;;0.60;0.47;;;27.70;74.40;;;;;;4952302;29;20038;-86
2023/08/09 10:18:31;;;;;;;1.20;0.40;;;27.70;74.50;;;;;;4946511;28;20091;-86
2023/08/09 10:20:59;;;;;;;0.73;0.30;;;27.80;74.60;;;;;;4939841;29;20600;-79
2023/08/09 10:23:31;;;;;;;1.65;0.25;;;27.90;74.40;;;;;;4940118;28;20486;-79
2023/08/09 10:25:58;;;;;;;0.50;0.30;;;28.00;74.60;;;;;;4935774;29;20114;-78
2023/08/09 10:28:41;;;;;;;1.13;0.40;;;28.00;74.50;;;;;;4953848;28;20109;-79
2023/08/09 10:31:07;;;;;;;1.05;0.38;;;28.10;73.90;;;;;;4950001;29;20441;-90
2023/08/09 10:33:32;;;;;;;0.60;0.35;;;28.10;73.60;;;;;;4940333;29;20131;-90
2023/08/09 10:35:58;;;;;;;1.65;0.40;;;28.10;73.50;;;;;;4950384;29;20358;-82
2023/08/09 10:38:30;;;;;;;1.13;0.40;;;28.10;73.20;;;;;;4942700;29;20019;-81
2023/08/09 10:40:55;;;;;;;2.38;0.30;;;28.20;73.50;;;;;;4945036;29;20034;-81
2023/08/09 10:43:26;;;;;;;1.17;0.30;;;28.20;73.20;;;;;;4950568;29;20027;-81
2023/08/09 10:45:55;;;;;;;0.50;0.40;;;28.20;73.20;;;;;;4947413;29;20066;-80
2023/08/09 10:48:28;;;;;;;0.30;0.20;;;28.20;72.90;;;;;;4942309;28;20035;-80
2023/08/09 10:51:12;;;;;;;0.30;0.30;;;28.30;72.90;;;;;;4953016;29;20054;-82
2023/08/09 10:53:59;;;;;;;1.05;0.30;;;28.40;72.50;;;;;;4949350;29;20040;-81
2023/08/09 10:56:45;;;;;;;0.80;0.50;;;28.40;72.20;;;;;;4947010;28;20082;-85
2023/08/09 10:59:13;;;;;;;0.47;0.30;;;28.60;71.50;;;;;;4945004;29;20111;-85
2023/08/09 11:01:43;;;;;;;0.68;0.30;;;28.60;72.00;;;;;;4935486;29;20457;-85
2023/08/09 11:04:14;;;;;;;0.32;0.32;;;28.60;72.10;;;;;;4946829;29;20091;-84
2023/08/09 11:06:42;;;;;;;1.25;0.52;;;28.80;72.00;;;;;;4944769;29;20039;-80
2023/08/09 11:09:13;;;;;;;1.23;0.50;;;28.90;71.30;;;;;;4948897;29;20035;-79
2023/08/09 11:11:40;;;;;;;0.70;0.30;;;29.00;71.10;;;;;;4934526;29;20393;-78
2023/08/09 11:14:07;;;;;;;0.30;0.30;;;29.10;71.40;;;;;;4949544;29;20027;-77
2023/08/09 11:16:33;;;;;;;1.40;0.60;;;29.40;71.80;;;;;;4952909;29;20155;-78
2023/08/09 11:19:10;;;;;;;1.45;0.60;;;29.70;70.90;;;;;;4943759;29;20118;-79
2023/08/09 11:21:42;;;;;;;1.67;0.60;;;30.00;69.60;;;;;;4932149;29;20059;-79
2023/08/09 11:24:09;;;;;;;1.85;0.70;;;30.10;69.20;;;;;;4948133;29;20069;-79
2023/08/09 11:26:36;;;;;;;0.60;0.60;;;30.20;69.50;;;;;;4939446;29;20474;-78
2023/08/09 11:29:04;;;;;;;0.95;0.60;;;30.30;69.30;;;;;;4947352;29;20116;-78
2023/08/09 11:31:33;;;;;;;1.02;0.40;;;30.40;68.80;;;;;;4941117;29;20042;-78
2023/08/09 11:34:00;;;;;;;1.02;0.60;;;30.50;68.20;;;;;;4947470;29;20027;-78
2023/08/09 11:36:28;;;;;;;0.75;0.47;;;30.60;68.10;;;;;;4934270;29;20410;-78
2023/08/09 11:38:54;;;;;;;1.95;0.50;;;30.80;67.90;;;;;;4942822;28;20182;-79
2023/08/09 11:41:21;;;;;;;0.93;0.52;;;30.80;66.60;;;;;;4951274;29;20110;-79
2023/08/09 11:43:48;;;;;;;1.92;0.57;;;30.90;66.40;;;;;;4912749;29;20032;-87
2023/08/09 11:46:13;;;;;;;1.85;0.40;;;30.70;65.60;;;;;;4933401;29;20040;-79
2023/08/09 11:48:41;;;;;;;1.58;0.40;;;30.60;65.50;;;;;;4952840;28;20038;-79
2023/08/09 11:51:15;;;;;;;1.42;0.60;;;30.50;65.50;;;;;;4953941;28;20027;-79
2023/08/09 11:53:43;;;;;;;3.10;0.40;;;30.50;65.20;;;;;;4936336;29;20032;-77
2023/08/09 11:56:23;;;;;;;0.65;0.30;;;30.50;65.20;;;;;;4950803;29;20031;-87
2023/08/09 11:58:53;;;;;;;1.27;0.40;;;30.40;64.40;;;;;;4937311;28;20046;-88
2023/08/09 12:01:20;;;;;;;0.93;0.50;;;30.40;64.50;;;;;;4952459;28;20409;-88
2023/08/09 12:03:49;;;;;;;1.15;0.35;;;30.40;64.20;;;;;;4951370;29;20028;-89
2023/08/09 12:06:16;;;;;;;0.63;0.30;;;30.40;63.90;;;;;;4949956;29;20118;-79
2023/08/09 12:08:42;;;;;;;0.50;0.30;;;30.40;63.70;;;;;;4947266;29;20042;-79
2023/08/09 12:11:07;;;;;;;0.75;0.32;;;30.30;64.10;;;;;;4951503;28;20031;-88
2023/08/09 12:13:33;;;;;;;1.60;0.40;;;30.20;64.70;;;;;;4961605;28;20035;-87
2023/08/09 12:16:00;;;;;;;0.90;0.45;;;30.30;65.00;;;;;;4957687;28;20047;-87
2023/08/09 12:18:26;;;;;;;0.98;0.45;;;30.30;65.00;;;;;;4968293;28;20043;-86
2023/08/09 12:20:55;;;;;;;0.52;0.40;;;30.30;65.60;;;;;;4956014;28;20079;-86
2023/08/09 12:23:21;;;;;;;0.85;0.50;;;30.30;65.10;;;;;;4931686;29;20507;-88
2023/08/09 12:25:47;;;;;;;0.85;0.35;;;30.30;64.80;;;;;;4950333;28;20023;-88
2023/08/09 12:28:13;;;;;;;2.78;0.40;;;30.20;65.30;;;;;;4938204;29;20035;-77
2023/08/09 12:30:38;;;;;;;1.08;0.60;;;30.20;65.50;;;;;;4950923;28;20045;-77
2023/08/09 12:33:08;;;;;;;1.75;0.68;;;30.10;65.90;;;;;;4950228;28;20126;-89
2023/08/09 12:35:34;;;;;;;0.52;0.30;;;30.10;66.20;;;;;;4947121;29;20027;-88
2023/08/09 12:38:03;;;;;;;1.67;0.30;;;30.20;66.60;;;;;;4944981;28;20111;-87
2023/08/09 12:40:29;;;;;;;1.05;0.40;;;30.20;66.60;;;;;;4946278;28;20119;-89
2023/08/09 12:42:54;;;;;;;0.85;0.40;;;30.20;66.00;;;;;;4931520;29;20031;-79
2023/08/09 12:45:20;;;;;;;1.00;0.40;;;30.20;66.30;;;;;;4948702;29;20019;-80
2023/08/09 12:47:46;;;;;;;2.28;0.60;;;30.20;66.10;;;;;;4932071;29;20548;-79
2023/08/09 12:50:12;;;;;;;1.17;0.50;;;30.10;66.30;;;;;;4951004;29;20015;-89
2023/08/09 12:52:38;;;;;;;0.43;0.40;;;30.20;66.10;;;;;;4950198;29;20122;-91